Gu Achi, Arizona
Current Conditions -  °F | °C
As of 4:48 PM on Tuesday 21 Oct 2014 (Local Time) from KRYN Reporting Station
Clear Clear  
Wind Chill: 84°   Ceiling: Unl
Heat Index: 84°   Visibility: 10mi
Dew Point: 45°   Wind: 5mph
Humidity: 25%   Direction: 260°W
Pressure: 29.87"   Gusts: NA
Location:  32.0925°N, 112.129°W
Report Text: KRYN 212348Z 26004KT 10SM CLR 29/07 A2987
Loading
Personal Weather Stations






























Interactive Weather Map
Tropical Storm Tracking
New forecast layout! Learn more

10-Day Weather Forecast

Advertisements
Track Severe Weather on mobile